Time;durP1;ratioP1;P1;durP2;ratioP2;P2;SDS_P1;SDS_P2;PMS_P1;PMS_P2;Temp;Humidity;BMP_temperature;BMP_pressure;BME280_temperature;BME280_humidity;BME280_pressure;Samples;Min_cycle;Max_cycle;Signal;HPM_P1;HPM_P2
2024/01/05 00:00:31;;;;;;;3.43;1.10;;;;;;;6.65;100.00;95323.00;5037217;28;20205;-67
2024/01/05 00:02:59;;;;;;;1.63;1.07;;;;;;;6.42;100.00;95328.22;5036855;28;20212;-67
2024/01/05 00:05:26;;;;;;;3.13;1.17;;;;;;;6.63;100.00;95317.91;5038066;28;20224;-67
2024/01/05 00:07:52;;;;;;;2.47;1.13;;;;;;;6.61;100.00;95311.25;5036486;28;21261;-68
2024/01/05 00:10:19;;;;;;;2.93;1.40;;;;;;;6.50;100.00;95304.59;5035598;28;20215;-67
2024/01/05 00:12:46;;;;;;;3.40;1.37;;;;;;;6.57;100.00;95308.16;5037251;28;20209;-68
2024/01/05 00:15:13;;;;;;;3.70;1.53;;;;;;;6.51;100.00;95301.00;5036853;28;20235;-68
2024/01/05 00:17:40;;;;;;;10.33;2.17;;;;;;;6.56;100.00;95309.16;5036180;28;20265;-67
2024/01/05 00:20:08;;;;;;;4.47;1.27;;;;;;;6.41;100.00;95303.03;5037570;28;20667;-67
2024/01/05 00:22:35;;;;;;;2.33;1.50;;;;;;;6.38;100.00;95303.41;5036891;28;20586;-67
2024/01/05 00:25:02;;;;;;;3.50;1.30;;;;;;;6.30;100.00;95298.22;5036088;28;20228;-67
2024/01/05 00:27:28;;;;;;;3.57;1.60;;;;;;;6.25;100.00;95297.94;5037083;28;20593;-68
2024/01/05 00:29:55;;;;;;;5.23;1.70;;;;;;;6.15;100.00;95293.91;5036886;28;20221;-67
2024/01/05 00:32:21;;;;;;;3.07;1.27;;;;;;;6.31;100.00;95280.72;5036558;28;20205;-67
2024/01/05 00:34:49;;;;;;;2.67;1.20;;;;;;;6.13;100.00;95280.97;5036462;28;20718;-67
2024/01/05 00:37:16;;;;;;;2.53;1.47;;;;;;;6.20;100.00;95271.47;5035999;28;20201;-68
2024/01/05 00:39:42;;;;;;;2.43;1.30;;;;;;;6.14;100.00;95281.81;5036210;28;20205;-67
2024/01/05 00:42:10;;;;;;;2.27;1.17;;;;;;;6.36;100.00;95276.56;5036690;28;20671;-67
2024/01/05 00:44:36;;;;;;;2.17;1.23;;;;;;;6.40;100.00;95279.66;5035997;28;20225;-67
2024/01/05 00:47:03;;;;;;;6.13;1.53;;;;;;;6.18;100.00;95283.91;5036354;28;20201;-67
2024/01/05 00:49:29;;;;;;;1.70;1.20;;;;;;;6.07;100.00;95280.88;5036235;28;20730;-68
2024/01/05 00:51:57;;;;;;;2.80;1.20;;;;;;;6.17;100.00;95274.44;5036219;28;20201;-67
2024/01/05 00:54:25;;;;;;;2.57;1.10;;;;;;;6.04;100.00;95285.66;5036116;28;20216;-67
2024/01/05 00:56:51;;;;;;;7.30;1.90;;;;;;;5.68;100.00;95271.44;5036163;28;20212;-67
2024/01/05 00:59:19;;;;;;;2.77;1.40;;;;;;;6.05;100.00;95265.34;5036440;28;20197;-68
2024/01/05 01:01:46;;;;;;;3.30;1.30;;;;;;;5.96;100.00;95267.38;5035401;28;20255;-67
2024/01/05 01:04:15;;;;;;;6.97;1.40;;;;;;;6.04;100.00;95262.13;5036056;28;20221;-67
2024/01/05 01:06:41;;;;;;;4.37;1.60;;;;;;;5.99;100.00;95259.19;5036474;28;20208;-67
2024/01/05 01:09:10;;;;;;;3.60;1.17;;;;;;;6.16;100.00;95257.13;5036260;28;20221;-68
2024/01/05 01:11:36;;;;;;;4.67;1.83;;;;;;;6.11;100.00;95261.25;5035362;28;20209;-68
2024/01/05 01:14:03;;;;;;;3.47;1.50;;;;;;;6.03;100.00;95258.66;5036444;28;20228;-67
2024/01/05 01:16:29;;;;;;;5.40;1.53;;;;;;;6.07;100.00;95257.31;5036400;28;20220;-67
2024/01/05 01:18:56;;;;;;;5.20;1.50;;;;;;;6.02;100.00;95259.69;5035141;28;20201;-67
2024/01/05 01:21:22;;;;;;;2.83;1.10;;;;;;;5.90;100.00;95260.25;5036029;28;20624;-67
2024/01/05 01:23:49;;;;;;;2.57;1.30;;;;;;;6.04;100.00;95254.28;5035726;28;20201;-67
2024/01/05 01:26:16;;;;;;;5.43;1.40;;;;;;;6.11;100.00;95254.22;5035713;28;20205;-68
2024/01/05 01:28:43;;;;;;;5.40;1.90;;;;;;;5.97;100.00;95245.47;5035468;28;20235;-67
2024/01/05 01:31:09;;;;;;;3.20;1.30;;;;;;;5.97;100.00;95248.91;5036171;28;20212;-67
2024/01/05 01:33:36;;;;;;;5.53;1.70;;;;;;;5.91;100.00;95254.03;5035244;28;20200;-67
2024/01/05 01:36:01;;;;;;;5.37;1.70;;;;;;;5.97;100.00;95269.00;5036001;28;21027;-67
2024/01/05 01:38:28;;;;;;;4.63;1.57;;;;;;;5.86;100.00;95282.47;5035989;28;20208;-67
2024/01/05 01:40:56;;;;;;;3.03;1.70;;;;;;;5.87;100.00;95284.09;5035500;28;20205;-67
2024/01/05 01:43:26;;;;;;;1.87;1.17;;;;;;;5.84;100.00;95261.75;5035506;28;20230;-67
2024/01/05 01:45:53;;;;;;;3.13;1.37;;;;;;;5.72;100.00;95260.44;5036293;28;20225;-67
2024/01/05 01:48:20;;;;;;;4.63;1.60;;;;;;;5.86;100.00;95256.34;5035179;28;20252;-67
2024/01/05 01:50:48;;;;;;;1.60;1.30;;;;;;;5.76;100.00;95246.09;5035729;28;20205;-67
2024/01/05 01:53:17;;;;;;;3.17;1.40;;;;;;;5.81;100.00;95232.53;5035687;28;20208;-67
2024/01/05 01:55:44;;;;;;;3.20;1.37;;;;;;;5.79;100.00;95234.47;5035273;28;20228;-67
2024/01/05 01:58:13;;;;;;;4.97;1.40;;;;;;;5.80;100.00;95243.94;5035663;28;20206;-67
2024/01/05 02:00:41;;;;;;;3.77;1.40;;;;;;;5.72;100.00;95242.16;5035898;28;20204;-67
2024/01/05 02:03:08;;;;;;;3.80;1.47;;;;;;;5.58;100.00;95248.09;5035624;28;20217;-67
2024/01/05 02:05:35;;;;;;;4.83;2.03;;;;;;;5.57;100.00;95240.44;5035567;28;20225;-67
2024/01/05 02:08:01;;;;;;;8.70;2.07;;;;;;;5.49;100.00;95240.50;5035325;28;20229;-67
2024/01/05 02:10:28;;;;;;;4.23;1.73;;;;;;;5.49;100.00;95230.84;5035985;28;20231;-67
2024/01/05 02:12:56;;;;;;;6.27;1.87;;;;;;;5.50;100.00;95229.06;5035264;28;20218;-67
2024/01/05 02:15:23;;;;;;;2.47;1.40;;;;;;;5.48;100.00;95236.25;5035715;28;20225;-67
2024/01/05 02:17:50;;;;;;;1.70;1.30;;;;;;;5.76;100.00;95232.22;5034298;28;20231;-67
2024/01/05 02:20:17;;;;;;;3.60;1.60;;;;;;;5.51;100.00;95233.28;5035719;28;20215;-67
2024/01/05 02:22:47;;;;;;;3.87;1.93;;;;;;;5.31;100.00;95244.31;5035267;28;20205;-67
2024/01/05 02:25:15;;;;;;;2.80;1.90;;;;;;;5.31;100.00;95239.09;5036287;28;20425;-67
2024/01/05 02:27:42;;;;;;;2.40;1.20;;;;;;;5.14;100.00;95247.97;5035885;28;20212;-67
2024/01/05 02:30:09;;;;;;;2.27;1.50;;;;;;;5.37;100.00;95235.81;5035002;28;20225;-67
2024/01/05 02:32:36;;;;;;;3.10;1.40;;;;;;;5.19;100.00;95233.41;5037743;28;20215;-67
2024/01/05 02:35:02;;;;;;;4.73;1.50;;;;;;;5.14;100.00;95222.69;5038651;28;21103;-67
2024/01/05 02:37:30;;;;;;;3.50;1.90;;;;;;;5.09;100.00;95224.16;5038831;28;20212;-67
2024/01/05 02:39:56;;;;;;;2.63;1.37;;;;;;;5.11;100.00;95201.31;5039111;28;20201;-67
2024/01/05 02:42:24;;;;;;;3.87;1.80;;;;;;;5.07;100.00;95189.59;5039436;28;20203;-67
2024/01/05 02:44:51;;;;;;;3.53;1.37;;;;;;;4.93;100.00;95183.25;5037659;28;20978;-67
2024/01/05 02:47:17;;;;;;;3.73;2.37;;;;;;;4.82;100.00;95189.84;5038737;28;20661;-67
2024/01/05 02:49:44;;;;;;;2.40;1.50;;;;;;;4.59;100.00;95178.47;5038680;28;20225;-68
2024/01/05 02:52:10;;;;;;;2.37;1.27;;;;;;;4.69;100.00;95172.09;5038951;28;20671;-67
2024/01/05 02:54:37;;;;;;;4.50;1.77;;;;;;;4.66;100.00;95163.78;5038507;28;20232;-67
2024/01/05 02:57:04;;;;;;;4.50;2.03;;;;;;;4.50;100.00;95158.59;5038800;28;20209;-67
2024/01/05 02:59:32;;;;;;;4.77;1.70;;;;;;;4.62;100.00;95146.84;5038843;28;20243;-67
2024/01/05 03:02:00;;;;;;;3.30;1.50;;;;;;;4.50;100.00;95148.97;5037686;28;20212;-67
2024/01/05 03:04:26;;;;;;;3.27;1.47;;;;;;;4.61;100.00;95155.63;5037916;28;20226;-67
2024/01/05 03:06:53;;;;;;;4.73;1.63;;;;;;;4.55;100.00;95151.91;5036470;28;20200;-67
2024/01/05 03:09:19;;;;;;;3.03;1.30;;;;;;;4.51;100.00;95166.25;5038461;28;21034;-67
2024/01/05 03:11:46;;;;;;;3.00;1.50;;;;;;;4.58;100.00;95174.22;5038112;28;20208;-68
2024/01/05 03:14:13;;;;;;;3.93;1.70;;;;;;;4.55;100.00;95188.41;5038660;28;20221;-67
2024/01/05 03:16:41;;;;;;;2.77;1.60;;;;;;;4.82;100.00;95167.97;5038179;28;20208;-67
2024/01/05 03:19:07;;;;;;;4.30;1.63;;;;;;;4.82;100.00;95156.72;5038317;28;20201;-67
2024/01/05 03:21:34;;;;;;;4.17;1.90;;;;;;;4.84;100.00;95145.13;5038333;28;20212;-67
2024/01/05 03:24:01;;;;;;;3.37;1.93;;;;;;;4.88;100.00;95141.19;5037211;28;20229;-67
2024/01/05 03:26:27;;;;;;;1.90;1.20;;;;;;;4.91;100.00;95129.59;5038390;28;20211;-67
2024/01/05 03:28:54;;;;;;;2.70;1.57;;;;;;;5.01;100.00;95128.41;5037534;28;20229;-67
2024/01/05 03:31:20;;;;;;;1.93;1.27;;;;;;;4.70;100.00;95134.59;5037473;28;21134;-67
2024/01/05 03:33:48;;;;;;;5.07;1.87;;;;;;;5.04;100.00;95122.03;5037134;28;20683;-68
2024/01/05 03:36:14;;;;;;;3.80;1.47;;;;;;;4.90;100.00;95126.19;5038490;28;20201;-67
2024/01/05 03:38:41;;;;;;;2.87;1.60;;;;;;;4.93;100.00;95118.00;5037975;28;20211;-67
2024/01/05 03:41:07;;;;;;;3.93;1.60;;;;;;;4.86;100.00;95119.69;5037753;28;20670;-67
2024/01/05 03:43:34;;;;;;;2.80;1.50;;;;;;;4.70;100.00;95118.94;5036881;28;20207;-67
2024/01/05 03:46:00;;;;;;;3.20;1.43;;;;;;;4.79;100.00;95119.72;5037636;28;20224;-67
2024/01/05 03:48:27;;;;;;;3.90;1.20;;;;;;;4.71;100.00;95140.59;5037268;28;20201;-67
2024/01/05 03:50:55;;;;;;;2.37;1.27;;;;;;;4.91;100.00;95130.44;5036882;28;20918;-67
2024/01/05 03:53:22;;;;;;;3.27;1.70;;;;;;;4.77;100.00;95114.66;5036815;28;20227;-67
2024/01/05 03:55:49;;;;;;;2.27;1.10;;;;;;;4.87;100.00;95107.44;5036912;28;21021;-67
2024/01/05 03:58:15;;;;;;;3.47;1.00;;;;;;;4.98;100.00;95100.03;5037826;28;20201;-67
2024/01/05 04:00:42;;;;;;;3.17;1.47;;;;;;;4.84;100.00;95105.97;5037634;28;20853;-67
2024/01/05 04:03:08;;;;;;;6.50;1.20;;;;;;;4.81;100.00;95102.09;5036623;28;20205;-67
2024/01/05 04:05:35;;;;;;;3.13;1.53;;;;;;;4.77;100.00;95114.66;5037552;28;20232;-68
2024/01/05 04:08:04;;;;;;;4.53;1.40;;;;;;;5.00;100.00;95111.16;5036651;28;20216;-67
2024/01/05 04:10:30;;;;;;;4.50;1.67;;;;;;;4.87;100.00;95102.22;5036876;28;20228;-67
2024/01/05 04:12:57;;;;;;;4.13;2.10;;;;;;;4.84;100.00;95111.19;5036450;28;20215;-67
2024/01/05 04:15:23;;;;;;;2.87;1.57;;;;;;;4.93;100.00;95120.63;5037167;28;20221;-67
2024/01/05 04:17:50;;;;;;;6.63;2.47;;;;;;;4.96;100.00;95115.09;5036310;28;20212;-67
2024/01/05 04:20:16;;;;;;;19.47;5.83;;;;;;;4.84;100.00;95126.06;5037138;28;20212;-67
2024/01/05 04:22:43;;;;;;;9.13;4.83;;;;;;;4.82;100.00;95131.44;5037275;28;20213;-67
2024/01/05 04:25:11;;;;;;;7.17;3.10;;;;;;;5.05;100.00;95134.09;5036096;28;20267;-67
2024/01/05 04:27:38;;;;;;;9.83;3.10;;;;;;;5.00;100.00;95144.25;5036733;28;20212;-67
2024/01/05 04:30:06;;;;;;;13.30;5.87;;;;;;;4.99;100.00;95140.00;5036657;28;21355;-67
2024/01/05 04:32:33;;;;;;;14.90;5.50;;;;;;;4.72;100.00;95137.03;5037325;28;21044;-67
2024/01/05 04:34:59;;;;;;;10.07;5.50;;;;;;;4.88;100.00;95122.91;5036041;28;20235;-67
2024/01/05 04:37:26;;;;;;;6.30;2.47;;;;;;;4.86;100.00;95137.94;5036972;28;20615;-67
2024/01/05 04:39:52;;;;;;;12.37;4.93;;;;;;;4.94;100.00;95135.31;5036793;28;20213;-67
2024/01/05 04:42:20;;;;;;;10.40;5.27;;;;;;;5.17;100.00;95130.94;5036447;28;20736;-67
2024/01/05 04:44:46;;;;;;;12.17;5.23;;;;;;;4.99;100.00;95127.78;5036159;28;20233;-68
2024/01/05 04:47:13;;;;;;;18.13;7.50;;;;;;;5.07;100.00;95112.06;5036450;28;20662;-67
2024/01/05 04:49:40;;;;;;;18.50;8.23;;;;;;;5.11;100.00;95108.13;5036223;28;20225;-67
2024/01/05 04:52:06;;;;;;;12.43;5.37;;;;;;;5.18;100.00;95109.09;5036163;28;20258;-67
2024/01/05 04:54:33;;;;;;;15.27;5.43;;;;;;;5.18;100.00;95108.25;5036527;28;20254;-67
2024/01/05 04:57:01;;;;;;;8.10;3.50;;;;;;;5.18;100.00;95093.41;5035200;28;20220;-68
2024/01/05 04:59:29;;;;;;;5.40;2.70;;;;;;;5.35;100.00;95092.34;5036597;28;20202;-67
2024/01/05 05:01:55;;;;;;;4.03;2.20;;;;;;;5.28;100.00;95083.53;5037312;28;20213;-67
2024/01/05 05:04:22;;;;;;;4.30;1.80;;;;;;;5.32;100.00;95074.41;5037815;28;20224;-67
2024/01/05 05:06:49;;;;;;;3.23;1.63;;;;;;;5.20;100.00;95067.13;5037314;28;20201;-67
2024/01/05 05:09:15;;;;;;;2.77;1.60;;;;;;;5.31;100.00;95078.00;5037796;28;20224;-67
2024/01/05 05:11:42;;;;;;;3.93;1.97;;;;;;;5.29;100.00;95077.34;5037679;28;20201;-67
2024/01/05 05:14:08;;;;;;;3.93;1.30;;;;;;;5.33;100.00;95083.84;5036678;28;20252;-67
2024/01/05 05:16:36;;;;;;;7.70;2.50;;;;;;;5.46;100.00;95078.88;5037452;28;20213;-67
2024/01/05 05:19:04;;;;;;;5.93;1.97;;;;;;;5.40;100.00;95079.56;5037082;28;20204;-67
2024/01/05 05:21:32;;;;;;;3.23;1.87;;;;;;;5.37;100.00;95082.50;5037258;28;20279;-67
2024/01/05 05:23:58;;;;;;;2.00;1.50;;;;;;;5.30;100.00;95067.72;5036081;28;20233;-67
2024/01/05 05:26:25;;;;;;;4.40;1.83;;;;;;;5.45;100.00;95070.22;5037806;28;20193;-67
2024/01/05 05:28:51;;;;;;;4.07;1.50;;;;;;;5.27;100.00;95078.50;5037044;28;20216;-67
2024/01/05 05:31:18;;;;;;;4.63;2.17;;;;;;;5.22;100.00;95076.41;5037210;28;20200;-67
2024/01/05 05:33:45;;;;;;;2.67;1.73;;;;;;;5.34;100.00;95072.41;5036830;28;20204;-67
2024/01/05 05:36:12;;;;;;;3.83;1.90;;;;;;;5.11;100.00;95078.63;5037083;28;21236;-67
2024/01/05 05:38:39;;;;;;;4.10;1.63;;;;;;;4.97;100.00;95079.34;5037597;28;20201;-67
2024/01/05 05:41:05;;;;;;;3.77;1.83;;;;;;;5.22;100.00;95073.81;5037177;28;20205;-67
2024/01/05 05:43:32;;;;;;;3.27;1.60;;;;;;;5.17;100.00;95078.75;5036346;28;20224;-67
2024/01/05 05:45:58;;;;;;;3.60;1.63;;;;;;;5.25;100.00;95080.50;5036827;28;20234;-67
2024/01/05 05:48:25;;;;;;;5.37;2.90;;;;;;;5.34;100.00;95077.63;5037445;28;20212;-67
2024/01/05 05:50:53;;;;;;;2.03;1.43;;;;;;;5.10;100.00;95072.56;5036645;28;20729;-67
2024/01/05 05:53:19;;;;;;;4.50;2.10;;;;;;;5.13;100.00;95079.25;5036406;28;20205;-67
2024/01/05 05:55:46;;;;;;;10.73;3.57;;;;;;;5.27;100.00;95076.72;5037659;28;20228;-67
2024/01/05 05:58:12;;;;;;;7.03;3.43;;;;;;;5.35;100.00;95083.69;5036958;28;20611;-67
2024/01/05 06:00:39;;;;;;;8.13;2.93;;;;;;;5.38;100.00;95097.19;5037287;28;20216;-67
2024/01/05 06:03:06;;;;;;;4.37;2.23;;;;;;;5.43;100.00;95086.25;5035920;28;20212;-67
2024/01/05 06:05:33;;;;;;;5.73;2.17;;;;;;;5.31;100.00;95082.38;5037219;28;20639;-67
2024/01/05 06:08:01;;;;;;;2.77;1.70;;;;;;;5.48;100.00;95080.31;5039104;28;20278;-67
2024/01/05 06:10:28;;;;;;;5.30;2.03;;;;;;;5.27;100.00;95084.56;5039948;28;20232;-66
2024/01/05 06:12:54;;;;;;;3.80;2.03;;;;;;;5.37;100.00;95073.88;5039127;28;20209;-68
2024/01/05 06:15:21;;;;;;;2.80;1.83;;;;;;;5.45;100.00;95090.31;5039025;28;20217;-67
2024/01/05 06:17:47;;;;;;;2.73;1.60;;;;;;;5.40;100.00;95102.25;5039261;28;20224;-68
2024/01/05 06:20:14;;;;;;;6.67;1.87;;;;;;;5.42;100.00;95095.88;5039257;28;20201;-67
2024/01/05 06:22:41;;;;;;;4.03;1.90;;;;;;;5.33;100.00;95089.06;5038931;28;20212;-67
2024/01/05 06:25:09;;;;;;;3.20;1.53;;;;;;;5.47;100.00;95093.53;5038928;28;20221;-67
2024/01/05 06:27:35;;;;;;;4.67;2.37;;;;;;;5.28;100.00;95091.38;5039607;28;20286;-67
2024/01/05 06:30:02;;;;;;;14.57;4.57;;;;;;;5.31;100.00;95093.66;5038765;28;20260;-66
2024/01/05 06:32:29;;;;;;;6.47;2.93;;;;;;;5.10;100.00;95083.00;5039355;28;20331;-67
2024/01/05 06:34:55;;;;;;;3.93;2.20;;;;;;;4.97;100.00;95095.81;5038893;28;20594;-67
2024/01/05 06:37:22;;;;;;;4.23;2.10;;;;;;;5.11;100.00;95102.91;5038666;28;20254;-67
2024/01/05 06:39:48;;;;;;;6.27;2.13;;;;;;;5.17;100.00;95109.28;5039248;28;20209;-66
2024/01/05 06:42:16;;;;;;;5.17;2.73;;;;;;;5.24;100.00;95120.63;5038520;28;20216;-67
2024/01/05 06:44:43;;;;;;;4.73;2.20;;;;;;;5.18;100.00;95118.69;5038346;28;20239;-67
2024/01/05 06:47:09;;;;;;;3.40;1.87;;;;;;;5.16;100.00;95121.50;5038701;28;20594;-67
2024/01/05 06:49:36;;;;;;;2.30;1.63;;;;;;;5.15;100.00;95119.84;5039566;28;20228;-67
2024/01/05 06:52:02;;;;;;;3.60;1.67;;;;;;;5.21;100.00;95098.28;5038327;28;20208;-68
2024/01/05 06:54:29;;;;;;;2.70;1.63;;;;;;;5.29;100.00;95106.06;5038478;28;20247;-68
2024/01/05 06:56:56;;;;;;;3.83;2.10;;;;;;;5.06;100.00;95110.44;5038323;28;20211;-67
2024/01/05 06:59:26;;;;;;;3.10;1.57;;;;;;;5.42;100.00;95105.50;5038498;28;20202;-68
2024/01/05 07:01:52;;;;;;;1.83;1.60;;;;;;;5.22;100.00;95107.75;5038413;28;20310;-68
2024/01/05 07:04:19;;;;;;;3.17;2.20;;;;;;;5.19;100.00;95115.91;5038363;28;20224;-68
2024/01/05 07:06:45;;;;;;;5.43;1.90;;;;;;;5.09;100.00;95106.69;5038641;28;21154;-68
2024/01/05 07:09:13;;;;;;;4.00;2.13;;;;;;;5.28;100.00;95104.44;5038163;28;20219;-67
2024/01/05 07:11:40;;;;;;;1.93;1.70;;;;;;;5.18;100.00;95092.59;5038063;28;20273;-68
2024/01/05 07:14:06;;;;;;;5.67;2.23;;;;;;;5.28;100.00;95088.75;5037731;28;20228;-67
2024/01/05 07:16:34;;;;;;;5.07;2.00;;;;;;;5.51;100.00;95100.03;5038518;28;20213;-68
2024/01/05 07:19:01;;;;;;;4.50;1.70;;;;;;;5.35;100.00;95088.91;5036906;28;20208;-67
2024/01/05 07:21:27;;;;;;;4.20;1.57;;;;;;;5.44;100.00;95093.91;5038643;28;20197;-68
2024/01/05 07:23:54;;;;;;;4.97;1.53;;;;;;;5.49;100.00;95094.19;5038004;28;20216;-67
2024/01/05 07:26:21;;;;;;;4.43;1.83;;;;;;;5.53;100.00;95090.25;5037614;28;20201;-67
2024/01/05 07:28:48;;;;;;;5.37;3.23;;;;;;;5.27;100.00;95102.84;5038290;28;20205;-67
2024/01/05 07:31:14;;;;;;;9.03;5.03;;;;;;;5.59;100.00;95094.78;5038204;28;20235;-67
2024/01/05 07:33:42;;;;;;;10.87;3.60;;;;;;;5.77;100.00;95105.78;5037161;28;20205;-68
2024/01/05 07:36:09;;;;;;;6.37;3.60;;;;;;;5.69;100.00;95103.19;5037654;28;20579;-67
2024/01/05 07:38:36;;;;;;;2.37;1.67;;;;;;;5.78;100.00;95097.75;5036474;28;20201;-67
2024/01/05 07:41:02;;;;;;;4.10;1.30;;;;;;;5.81;100.00;95080.91;5036965;28;20208;-68
2024/01/05 07:43:30;;;;;;;2.30;1.20;;;;;;;5.98;100.00;95077.97;5037567;28;20197;-68
2024/01/05 07:45:57;;;;;;;2.93;1.60;;;;;;;5.90;100.00;95078.03;5038093;28;20591;-68
2024/01/05 07:48:23;;;;;;;2.27;1.27;;;;;;;5.96;100.00;95066.06;5037121;28;20212;-68
2024/01/05 07:50:51;;;;;;;2.73;1.13;;;;;;;6.26;100.00;95056.31;5037353;28;21023;-67
2024/01/05 07:53:18;;;;;;;1.87;1.00;;;;;;;5.97;100.00;95065.09;5037104;28;20205;-68
2024/01/05 07:55:44;;;;;;;5.57;2.00;;;;;;;6.04;100.00;95081.69;5037746;28;20228;-67
2024/01/05 07:58:11;;;;;;;1.73;1.57;;;;;;;6.10;100.00;95084.41;5037705;28;20209;-68
2024/01/05 08:00:38;;;;;;;3.13;1.90;;;;;;;6.24;100.00;95078.41;5037704;28;20578;-68
2024/01/05 08:03:06;;;;;;;2.93;1.70;;;;;;;6.37;100.00;95084.63;5036590;28;20297;-67
2024/01/05 08:05:33;;;;;;;5.53;2.27;;;;;;;6.29;100.00;95078.69;5037968;28;20221;-67
2024/01/05 08:08:01;;;;;;;4.37;2.00;;;;;;;6.60;100.00;95077.50;5037200;28;20598;-67
2024/01/05 08:10:28;;;;;;;4.37;2.50;;;;;;;6.48;100.00;95084.19;5036920;28;20231;-67
2024/01/05 08:12:54;;;;;;;2.80;1.73;;;;;;;6.41;100.00;95085.88;5037294;28;20201;-67
2024/01/05 08:15:20;;;;;;;3.13;1.80;;;;;;;6.37;100.00;95091.66;5037302;28;20225;-67
2024/01/05 08:17:47;;;;;;;5.03;1.40;;;;;;;6.34;100.00;95077.13;5036684;28;20625;-67
2024/01/05 08:20:14;;;;;;;2.17;1.47;;;;;;;6.40;100.00;95067.75;5037290;28;20201;-67
2024/01/05 08:22:40;;;;;;;2.93;1.30;;;;;;;6.33;100.00;95072.88;5037406;28;20206;-67
2024/01/05 08:25:09;;;;;;;3.37;1.33;;;;;;;6.58;100.00;95066.41;5036388;28;20596;-67
2024/01/05 08:27:35;;;;;;;5.40;1.80;;;;;;;6.50;100.00;95063.88;5037114;28;20571;-67
2024/01/05 08:30:02;;;;;;;6.93;2.00;;;;;;;6.35;100.00;95065.69;5036923;28;20800;-67
2024/01/05 08:32:28;;;;;;;4.80;1.50;;;;;;;6.35;100.00;95060.47;5037079;28;20982;-67
2024/01/05 08:34:55;;;;;;;3.93;2.00;;;;;;;6.48;100.00;95044.94;5036362;28;20225;-67
2024/01/05 08:37:21;;;;;;;16.83;2.67;;;;;;;6.53;100.00;95060.91;5036441;28;20935;-67
2024/01/05 08:39:48;;;;;;;3.83;1.83;;;;;;;6.57;100.00;95059.56;5037841;28;20208;-67
2024/01/05 08:42:16;;;;;;;2.93;1.33;;;;;;;6.59;100.00;95070.63;5036534;28;20211;-67
2024/01/05 08:44:43;;;;;;;2.20;1.20;;;;;;;6.40;100.00;95063.34;5036429;28;20225;-67
2024/01/05 08:47:10;;;;;;;1.53;1.20;;;;;;;6.58;100.00;95052.50;5036427;28;20209;-67
2024/01/05 08:49:38;;;;;;;2.43;1.60;;;;;;;6.65;100.00;95054.22;5037111;28;20232;-67
2024/01/05 08:52:04;;;;;;;4.73;1.80;;;;;;;6.71;100.00;95056.13;5036578;28;20228;-67
2024/01/05 08:54:31;;;;;;;4.77;2.33;;;;;;;6.76;100.00;95054.56;5036507;28;20232;-67
2024/01/05 08:56:57;;;;;;;3.47;1.80;;;;;;;6.78;100.00;95051.75;5036583;28;20212;-67
2024/01/05 08:59:25;;;;;;;6.60;2.40;;;;;;;6.97;100.00;95046.75;5036088;28;20210;-67
2024/01/05 09:01:52;;;;;;;7.13;2.13;;;;;;;6.89;100.00;95051.31;5037388;28;20209;-67
2024/01/05 09:04:18;;;;;;;3.03;1.60;;;;;;;7.01;100.00;95048.00;5036271;28;20240;-67
2024/01/05 09:06:45;;;;;;;2.70;1.60;;;;;;;6.97;100.00;95046.75;5035735;28;20231;-67
2024/01/05 09:09:11;;;;;;;4.67;1.80;;;;;;;7.07;100.00;95047.28;5036135;28;20221;-67
2024/01/05 09:11:39;;;;;;;1.90;1.33;;;;;;;7.17;100.00;95042.56;5036846;28;20232;-67
2024/01/05 09:14:05;;;;;;;4.80;1.27;;;;;;;7.22;100.00;95045.44;5034637;28;20251;-67
2024/01/05 09:16:33;;;;;;;4.27;1.50;;;;;;;7.46;100.00;95051.13;5035717;28;20205;-67
2024/01/05 09:18:59;;;;;;;3.83;1.27;;;;;;;7.38;100.00;95056.50;5036196;28;20239;-67
2024/01/05 09:21:26;;;;;;;2.70;1.00;;;;;;;7.15;100.00;95054.22;5036071;28;20647;-67
2024/01/05 09:23:52;;;;;;;1.70;1.30;;;;;;;7.26;100.00;95072.09;5035786;28;20205;-67
2024/01/05 09:26:19;;;;;;;3.37;1.40;;;;;;;7.41;100.00;95071.84;5035704;28;20600;-67
2024/01/05 09:28:45;;;;;;;3.80;2.27;;;;;;;7.50;100.00;95075.97;5035959;28;20212;-67
2024/01/05 09:31:12;;;;;;;5.20;2.60;;;;;;;7.63;100.00;95075.28;5035732;28;20232;-67
2024/01/05 09:33:40;;;;;;;2.67;1.50;;;;;;;7.67;100.00;95081.78;5036492;28;20209;-67
2024/01/05 09:36:07;;;;;;;6.17;1.80;;;;;;;7.65;100.00;95079.34;5035909;28;20211;-67
2024/01/05 09:38:34;;;;;;;6.83;1.60;;;;;;;7.39;100.00;95076.44;5036044;28;20204;-67
2024/01/05 09:41:02;;;;;;;5.17;1.70;;;;;;;7.67;100.00;95077.34;5035797;28;20582;-67
2024/01/05 09:43:28;;;;;;;2.63;1.23;;;;;;;7.72;100.00;95079.41;5039767;28;20205;-67
2024/01/05 09:45:56;;;;;;;3.23;1.33;;;;;;;7.76;100.00;95064.94;5040367;28;20225;-67
2024/01/05 09:48:24;;;;;;;3.77;1.60;;;;;;;8.14;100.00;95062.66;5039627;28;20205;-67
2024/01/05 09:50:55;;;;;;;6.43;1.70;;;;;;;8.47;100.00;95068.16;5040023;28;20229;-67
2024/01/05 09:53:21;;;;;;;2.40;1.27;;;;;;;8.28;100.00;95067.00;5039321;28;20205;-67
2024/01/05 09:55:49;;;;;;;1.97;1.57;;;;;;;8.44;100.00;95065.88;5039820;28;20270;-67
2024/01/05 09:58:16;;;;;;;5.10;1.60;;;;;;;8.41;100.00;95067.09;5039040;28;20216;-67
2024/01/05 10:00:45;;;;;;;3.47;1.40;;;;;;;8.58;100.00;95069.22;5039839;28;20201;-67
2024/01/05 10:03:16;;;;;;;3.30;1.57;;;;;;;8.60;100.00;95069.88;5039213;28;20221;-67
2024/01/05 10:05:43;;;;;;;2.90;1.43;;;;;;;8.53;100.00;95065.56;5039845;28;20228;-67
2024/01/05 10:08:11;;;;;;;2.17;1.37;;;;;;;8.78;100.00;95054.41;5039233;28;20756;-67
2024/01/05 10:10:48;;;;;;;2.73;1.10;;;;;;;8.77;100.00;95055.41;5040436;28;20282;-67
2024/01/05 10:13:15;;;;;;;2.07;1.30;;;;;;;8.69;100.00;95052.94;5038045;28;20212;-67
2024/01/05 10:15:55;;;;;;;2.67;1.53;;;;;;;9.03;100.00;95057.34;5039329;28;20221;-67
2024/01/05 10:18:22;;;;;;;2.83;1.20;;;;;;;8.69;100.00;95049.50;5040112;28;20212;-67
2024/01/05 10:20:49;;;;;;;2.73;1.20;;;;;;;8.64;100.00;95051.88;5040399;28;20224;-68
2024/01/05 10:23:18;;;;;;;5.43;1.50;;;;;;;8.84;100.00;95048.34;5038451;28;20207;-68
2024/01/05 10:25:46;;;;;;;7.03;1.80;;;;;;;8.77;100.00;95050.16;5038640;28;20220;-68
2024/01/05 10:28:31;;;;;;;5.10;1.67;;;;;;;9.08;100.00;95050.50;5038532;28;20204;-68
2024/01/05 10:31:11;;;;;;;2.87;1.30;;;;;;;9.07;100.00;95051.50;5038988;28;20228;-68
2024/01/05 10:33:48;;;;;;;3.83;1.40;;;;;;;9.15;100.00;95040.78;5038823;28;20223;-68
2024/01/05 10:36:14;;;;;;;6.63;1.97;;;;;;;8.61;100.00;95037.31;5039034;28;20671;-68
2024/01/05 10:38:44;;;;;;;4.20;1.60;;;;;;;8.95;100.00;95039.94;5038896;28;20213;-68
2024/01/05 10:41:10;;;;;;;4.37;2.00;;;;;;;8.96;100.00;95031.06;5038989;28;20200;-68
2024/01/05 10:43:38;;;;;;;4.40;1.70;;;;;;;8.83;100.00;95048.56;5038729;28;20205;-68
2024/01/05 10:46:06;;;;;;;4.63;1.87;;;;;;;8.73;100.00;95046.28;5039111;28;20779;-68
2024/01/05 10:48:34;;;;;;;5.97;1.83;;;;;;;8.81;100.00;95043.50;5038518;28;20201;-68
2024/01/05 10:51:01;;;;;;;3.40;1.90;;;;;;;8.88;100.00;95052.22;5038876;28;20869;-68
2024/01/05 10:53:28;;;;;;;4.67;2.17;;;;;;;8.60;100.00;95048.84;5036399;28;20202;-68
2024/01/05 10:55:58;;;;;;;3.97;2.03;;;;;;;8.68;100.00;95050.50;5038939;28;20228;-67
2024/01/05 10:58:25;;;;;;;3.80;1.43;;;;;;;8.58;100.00;95056.09;5038463;28;20197;-68
2024/01/05 11:00:54;;;;;;;4.90;2.73;;;;;;;8.91;100.00;95064.13;5038725;28;20212;-68
2024/01/05 11:03:24;;;;;;;9.40;4.07;;;;;;;8.87;100.00;95058.50;5037614;28;20209;-67
2024/01/05 11:05:52;;;;;;;7.10;2.80;;;;;;;8.70;100.00;95057.16;5038847;28;20229;-68
2024/01/05 11:08:32;;;;;;;7.20;3.03;;;;;;;9.09;100.00;95052.91;5038245;28;20208;-68
2024/01/05 11:11:11;;;;;;;5.70;2.60;;;;;;;9.10;100.00;95043.22;5038537;28;20792;-68
2024/01/05 11:14:00;;;;;;;4.90;2.80;;;;;;;9.19;100.00;95049.94;5038022;28;20965;-68
2024/01/05 11:16:58;;;;;;;5.67;2.93;;;;;;;9.11;100.00;95044.84;5037495;28;20197;-68
2024/01/05 11:19:48;;;;;;;8.17;2.70;;;;;;;9.17;100.00;95042.22;5038354;28;20224;-68
2024/01/05 11:22:24;;;;;;;3.67;2.00;;;;;;;9.06;100.00;95039.34;5038819;28;20197;-68
2024/01/05 11:24:52;;;;;;;4.00;2.07;;;;;;;8.69;100.00;95039.81;5037847;28;20228;-68
2024/01/05 11:27:31;;;;;;;19.10;5.27;;;;;;;8.90;100.00;95038.91;5037461;28;20814;-68
2024/01/05 11:29:58;;;;;;;18.53;5.07;;;;;;;8.69;100.00;95039.81;5038890;28;20981;-68
2024/01/05 11:32:39;;;;;;;21.13;5.60;;;;;;;8.97;100.00;95029.22;5037392;28;20221;-68